sensor_id;sensor_type;location;lat;lon;timestamp;P1;durP1;ratioP1;P2;durP2;ratioP2
76788;SDS011;65740;52.464;13.446;2023-07-16T00:00:13;8.07;;;7.37;;
76788;SDS011;65740;52.464;13.446;2023-07-16T00:02:40;8.10;;;7.60;;
76788;SDS011;65740;52.464;13.446;2023-07-16T00:05:06;7.43;;;6.93;;
76788;SDS011;65740;52.464;13.446;2023-07-16T00:07:31;7.00;;;6.50;;
76788;SDS011;65740;52.464;13.446;2023-07-16T00:09:57;7.63;;;7.03;;
76788;SDS011;65740;52.464;13.446;2023-07-16T00:12:23;7.43;;;6.93;;
76788;SDS011;65740;52.464;13.446;2023-07-16T00:14:48;7.50;;;6.90;;
76788;SDS011;65740;52.464;13.446;2023-07-16T00:17:14;7.37;;;6.80;;
76788;SDS011;65740;52.464;13.446;2023-07-16T00:19:40;6.90;;;6.40;;
76788;SDS011;65740;52.464;13.446;2023-07-16T00:22:05;7.20;;;6.70;;
76788;SDS011;65740;52.464;13.446;2023-07-16T00:24:32;7.37;;;6.80;;
76788;SDS011;65740;52.464;13.446;2023-07-16T00:26:57;7.60;;;7.10;;
76788;SDS011;65740;52.464;13.446;2023-07-16T00:29:23;8.10;;;7.40;;
76788;SDS011;65740;52.464;13.446;2023-07-16T00:31:49;7.00;;;6.40;;
76788;SDS011;65740;52.464;13.446;2023-07-16T00:34:14;7.83;;;7.23;;
76788;SDS011;65740;52.464;13.446;2023-07-16T00:36:40;8.07;;;7.50;;
76788;SDS011;65740;52.464;13.446;2023-07-16T00:39:06;7.53;;;7.03;;
76788;SDS011;65740;52.464;13.446;2023-07-16T00:41:31;7.77;;;7.17;;
76788;SDS011;65740;52.464;13.446;2023-07-16T00:43:57;8.37;;;7.67;;
76788;SDS011;65740;52.464;13.446;2023-07-16T00:46:23;8.30;;;7.70;;
76788;SDS011;65740;52.464;13.446;2023-07-16T00:48:49;8.03;;;7.40;;
76788;SDS011;65740;52.464;13.446;2023-07-16T00:51:15;7.20;;;6.50;;
76788;SDS011;65740;52.464;13.446;2023-07-16T00:53:42;6.77;;;6.27;;
76788;SDS011;65740;52.464;13.446;2023-07-16T00:56:09;7.17;;;6.67;;
76788;SDS011;65740;52.464;13.446;2023-07-16T00:58:35;6.87;;;6.37;;
76788;SDS011;65740;52.464;13.446;2023-07-16T01:01:01;6.87;;;6.40;;
76788;SDS011;65740;52.464;13.446;2023-07-16T01:03:26;6.93;;;6.43;;
76788;SDS011;65740;52.464;13.446;2023-07-16T01:08:30;6.70;;;6.20;;
76788;SDS011;65740;52.464;13.446;2023-07-16T01:11:03;6.50;;;6.10;;
76788;SDS011;65740;52.464;13.446;2023-07-16T01:13:29;6.97;;;6.47;;
76788;SDS011;65740;52.464;13.446;2023-07-16T01:15:55;6.70;;;6.20;;
76788;SDS011;65740;52.464;13.446;2023-07-16T01:18:21;6.40;;;5.90;;
76788;SDS011;65740;52.464;13.446;2023-07-16T01:20:46;7.00;;;6.50;;
76788;SDS011;65740;52.464;13.446;2023-07-16T01:23:21;7.40;;;6.80;;
76788;SDS011;65740;52.464;13.446;2023-07-16T01:29:36;6.77;;;6.33;;
76788;SDS011;65740;52.464;13.446;2023-07-16T01:32:16;6.00;;;5.60;;
76788;SDS011;65740;52.464;13.446;2023-07-16T01:34:42;7.03;;;6.53;;
76788;SDS011;65740;52.464;13.446;2023-07-16T01:37:08;7.10;;;6.60;;
76788;SDS011;65740;52.464;13.446;2023-07-16T01:39:34;7.03;;;6.57;;
76788;SDS011;65740;52.464;13.446;2023-07-16T01:42:00;6.57;;;6.07;;
76788;SDS011;65740;52.464;13.446;2023-07-16T01:44:27;6.13;;;5.70;;
76788;SDS011;65740;52.464;13.446;2023-07-16T01:46:59;6.40;;;6.00;;
76788;SDS011;65740;52.464;13.446;2023-07-16T01:49:38;6.30;;;5.90;;
76788;SDS011;65740;52.464;13.446;2023-07-16T01:52:04;6.30;;;5.87;;
76788;SDS011;65740;52.464;13.446;2023-07-16T01:54:31;6.97;;;6.47;;
76788;SDS011;65740;52.464;13.446;2023-07-16T01:56:56;6.00;;;5.60;;
76788;SDS011;65740;52.464;13.446;2023-07-16T01:59:22;5.73;;;5.33;;
76788;SDS011;65740;52.464;13.446;2023-07-16T02:01:48;6.13;;;5.63;;
76788;SDS011;65740;52.464;13.446;2023-07-16T02:04:13;6.27;;;5.70;;
76788;SDS011;65740;52.464;13.446;2023-07-16T02:06:39;5.90;;;5.50;;
76788;SDS011;65740;52.464;13.446;2023-07-16T02:09:04;6.43;;;5.97;;
76788;SDS011;65740;52.464;13.446;2023-07-16T02:11:30;6.53;;;6.13;;
76788;SDS011;65740;52.464;13.446;2023-07-16T02:13:56;5.97;;;5.57;;
76788;SDS011;65740;52.464;13.446;2023-07-16T02:16:21;5.93;;;5.53;;
76788;SDS011;65740;52.464;13.446;2023-07-16T02:18:47;6.00;;;5.60;;
76788;SDS011;65740;52.464;13.446;2023-07-16T02:21:13;6.10;;;5.70;;
76788;SDS011;65740;52.464;13.446;2023-07-16T02:23:39;6.07;;;5.67;;
76788;SDS011;65740;52.464;13.446;2023-07-16T02:26:04;5.87;;;5.47;;
76788;SDS011;65740;52.464;13.446;2023-07-16T02:28:30;6.10;;;5.70;;
76788;SDS011;65740;52.464;13.446;2023-07-16T02:30:56;5.53;;;5.23;;
76788;SDS011;65740;52.464;13.446;2023-07-16T02:33:21;5.87;;;5.47;;
76788;SDS011;65740;52.464;13.446;2023-07-16T02:35:47;5.33;;;4.83;;
76788;SDS011;65740;52.464;13.446;2023-07-16T02:38:16;5.47;;;5.13;;
76788;SDS011;65740;52.464;13.446;2023-07-16T02:40:43;6.07;;;5.67;;
76788;SDS011;65740;52.464;13.446;2023-07-16T02:43:09;5.40;;;5.00;;
76788;SDS011;65740;52.464;13.446;2023-07-16T02:45:35;5.83;;;5.53;;
76788;SDS011;65740;52.464;13.446;2023-07-16T02:48:00;5.33;;;4.93;;
76788;SDS011;65740;52.464;13.446;2023-07-16T02:50:27;5.60;;;5.20;;
76788;SDS011;65740;52.464;13.446;2023-07-16T02:52:52;5.50;;;5.13;;
76788;SDS011;65740;52.464;13.446;2023-07-16T02:55:18;5.47;;;5.17;;
76788;SDS011;65740;52.464;13.446;2023-07-16T02:57:43;5.23;;;4.93;;
76788;SDS011;65740;52.464;13.446;2023-07-16T03:00:09;6.60;;;6.20;;
76788;SDS011;65740;52.464;13.446;2023-07-16T03:02:35;6.00;;;5.60;;
76788;SDS011;65740;52.464;13.446;2023-07-16T03:05:00;5.87;;;5.37;;
76788;SDS011;65740;52.464;13.446;2023-07-16T03:07:26;5.10;;;4.80;;
76788;SDS011;65740;52.464;13.446;2023-07-16T03:09:51;5.20;;;4.90;;
76788;SDS011;65740;52.464;13.446;2023-07-16T03:12:17;5.80;;;5.40;;
76788;SDS011;65740;52.464;13.446;2023-07-16T03:14:43;5.87;;;5.47;;
76788;SDS011;65740;52.464;13.446;2023-07-16T03:17:08;6.00;;;5.60;;
76788;SDS011;65740;52.464;13.446;2023-07-16T03:19:34;5.13;;;4.73;;
76788;SDS011;65740;52.464;13.446;2023-07-16T03:22:00;5.70;;;5.30;;
76788;SDS011;65740;52.464;13.446;2023-07-16T03:24:25;5.57;;;5.17;;
76788;SDS011;65740;52.464;13.446;2023-07-16T03:26:51;5.73;;;5.40;;
76788;SDS011;65740;52.464;13.446;2023-07-16T03:29:16;5.83;;;5.43;;
76788;SDS011;65740;52.464;13.446;2023-07-16T03:31:42;5.20;;;4.90;;
76788;SDS011;65740;52.464;13.446;2023-07-16T03:34:08;6.43;;;6.00;;
76788;SDS011;65740;52.464;13.446;2023-07-16T03:36:33;5.80;;;5.40;;
76788;SDS011;65740;52.464;13.446;2023-07-16T03:38:59;5.50;;;5.10;;
76788;SDS011;65740;52.464;13.446;2023-07-16T03:41:24;6.00;;;5.60;;
76788;SDS011;65740;52.464;13.446;2023-07-16T03:43:50;5.53;;;5.13;;
76788;SDS011;65740;52.464;13.446;2023-07-16T03:46:16;5.30;;;5.00;;
76788;SDS011;65740;52.464;13.446;2023-07-16T03:48:41;5.50;;;5.20;;
76788;SDS011;65740;52.464;13.446;2023-07-16T03:51:07;5.30;;;5.00;;
76788;SDS011;65740;52.464;13.446;2023-07-16T03:53:32;5.60;;;5.20;;
76788;SDS011;65740;52.464;13.446;2023-07-16T03:55:58;5.50;;;5.20;;
76788;SDS011;65740;52.464;13.446;2023-07-16T03:58:23;5.60;;;5.23;;
76788;SDS011;65740;52.464;13.446;2023-07-16T04:00:49;5.47;;;5.13;;
76788;SDS011;65740;52.464;13.446;2023-07-16T04:03:15;5.13;;;4.83;;
76788;SDS011;65740;52.464;13.446;2023-07-16T04:05:40;5.30;;;5.00;;
76788;SDS011;65740;52.464;13.446;2023-07-16T04:08:06;5.17;;;4.87;;
76788;SDS011;65740;52.464;13.446;2023-07-16T04:10:33;5.67;;;5.27;;
76788;SDS011;65740;52.464;13.446;2023-07-16T04:12:58;5.20;;;4.90;;
76788;SDS011;65740;52.464;13.446;2023-07-16T04:15:24;5.33;;;4.97;;
76788;SDS011;65740;52.464;13.446;2023-07-16T04:17:50;5.10;;;4.80;;
76788;SDS011;65740;52.464;13.446;2023-07-16T04:20:15;5.70;;;5.30;;
76788;SDS011;65740;52.464;13.446;2023-07-16T04:22:41;5.27;;;4.97;;
76788;SDS011;65740;52.464;13.446;2023-07-16T04:25:06;4.90;;;4.60;;
76788;SDS011;65740;52.464;13.446;2023-07-16T04:27:32;4.90;;;4.60;;
76788;SDS011;65740;52.464;13.446;2023-07-16T04:29:58;4.93;;;4.63;;
76788;SDS011;65740;52.464;13.446;2023-07-16T04:32:24;5.00;;;4.70;;
76788;SDS011;65740;52.464;13.446;2023-07-16T04:34:49;4.60;;;4.30;;
76788;SDS011;65740;52.464;13.446;2023-07-16T04:37:15;5.10;;;4.80;;
76788;SDS011;65740;52.464;13.446;2023-07-16T04:39:40;5.07;;;4.77;;
76788;SDS011;65740;52.464;13.446;2023-07-16T04:42:06;5.97;;;4.93;;
76788;SDS011;65740;52.464;13.446;2023-07-16T04:44:32;4.83;;;4.53;;
76788;SDS011;65740;52.464;13.446;2023-07-16T04:46:57;5.77;;;5.37;;
76788;SDS011;65740;52.464;13.446;2023-07-16T04:49:23;5.40;;;5.10;;
76788;SDS011;65740;52.464;13.446;2023-07-16T04:51:48;4.80;;;4.50;;
76788;SDS011;65740;52.464;13.446;2023-07-16T04:54:14;4.50;;;4.30;;
76788;SDS011;65740;52.464;13.446;2023-07-16T04:56:39;4.90;;;4.60;;
76788;SDS011;65740;52.464;13.446;2023-07-16T04:59:05;5.03;;;4.73;;
76788;SDS011;65740;52.464;13.446;2023-07-16T05:01:30;4.90;;;4.60;;
76788;SDS011;65740;52.464;13.446;2023-07-16T05:03:56;4.97;;;4.67;;
76788;SDS011;65740;52.464;13.446;2023-07-16T05:06:22;4.87;;;4.57;;
76788;SDS011;65740;52.464;13.446;2023-07-16T05:08:47;5.20;;;4.90;;
76788;SDS011;65740;52.464;13.446;2023-07-16T05:11:13;5.00;;;4.70;;
76788;SDS011;65740;52.464;13.446;2023-07-16T05:13:38;4.93;;;4.63;;
76788;SDS011;65740;52.464;13.446;2023-07-16T05:16:04;5.53;;;5.17;;
76788;SDS011;65740;52.464;13.446;2023-07-16T05:18:30;5.17;;;4.77;;
76788;SDS011;65740;52.464;13.446;2023-07-16T05:20:55;4.90;;;4.60;;
76788;SDS011;65740;52.464;13.446;2023-07-16T05:23:21;5.33;;;4.97;;
76788;SDS011;65740;52.464;13.446;2023-07-16T05:25:48;4.77;;;4.50;;
76788;SDS011;65740;52.464;13.446;2023-07-16T05:28:14;5.00;;;4.70;;
76788;SDS011;65740;52.464;13.446;2023-07-16T05:30:40;4.40;;;4.20;;
76788;SDS011;65740;52.464;13.446;2023-07-16T05:33:06;4.97;;;4.67;;
76788;SDS011;65740;52.464;13.446;2023-07-16T05:35:32;4.67;;;4.40;;
76788;SDS011;65740;52.464;13.446;2023-07-16T05:37:57;4.40;;;4.10;;
76788;SDS011;65740;52.464;13.446;2023-07-16T05:40:23;5.00;;;4.67;;
76788;SDS011;65740;52.464;13.446;2023-07-16T05:42:48;4.67;;;4.37;;
76788;SDS011;65740;52.464;13.446;2023-07-16T05:45:14;4.90;;;4.60;;
76788;SDS011;65740;52.464;13.446;2023-07-16T05:47:40;4.80;;;4.50;;
76788;SDS011;65740;52.464;13.446;2023-07-16T05:50:05;4.57;;;4.27;;
76788;SDS011;65740;52.464;13.446;2023-07-16T05:52:31;4.73;;;4.43;;
76788;SDS011;65740;52.464;13.446;2023-07-16T05:54:58;4.97;;;4.67;;
76788;SDS011;65740;52.464;13.446;2023-07-16T05:57:23;4.30;;;4.10;;
76788;SDS011;65740;52.464;13.446;2023-07-16T05:59:49;4.80;;;4.50;;
76788;SDS011;65740;52.464;13.446;2023-07-16T06:02:14;4.20;;;4.00;;
76788;SDS011;65740;52.464;13.446;2023-07-16T06:04:40;4.87;;;4.57;;
76788;SDS011;65740;52.464;13.446;2023-07-16T06:07:06;4.90;;;4.60;;
76788;SDS011;65740;52.464;13.446;2023-07-16T06:09:32;4.90;;;4.60;;
76788;SDS011;65740;52.464;13.446;2023-07-16T06:11:58;4.20;;;4.00;;
76788;SDS011;65740;52.464;13.446;2023-07-16T06:14:23;5.20;;;4.90;;
76788;SDS011;65740;52.464;13.446;2023-07-16T06:16:49;4.70;;;4.40;;
76788;SDS011;65740;52.464;13.446;2023-07-16T06:19:15;4.27;;;3.97;;
76788;SDS011;65740;52.464;13.446;2023-07-16T06:21:40;4.27;;;3.97;;
76788;SDS011;65740;52.464;13.446;2023-07-16T06:24:06;4.33;;;4.13;;
76788;SDS011;65740;52.464;13.446;2023-07-16T06:26:31;4.10;;;3.90;;
76788;SDS011;65740;52.464;13.446;2023-07-16T06:28:57;4.43;;;4.20;;
76788;SDS011;65740;52.464;13.446;2023-07-16T06:31:22;4.20;;;4.00;;
76788;SDS011;65740;52.464;13.446;2023-07-16T06:33:48;5.60;;;5.10;;
76788;SDS011;65740;52.464;13.446;2023-07-16T06:36:15;4.60;;;4.30;;
76788;SDS011;65740;52.464;13.446;2023-07-16T06:38:41;4.90;;;4.60;;
76788;SDS011;65740;52.464;13.446;2023-07-16T06:41:07;4.53;;;4.23;;
76788;SDS011;65740;52.464;13.446;2023-07-16T06:43:32;4.57;;;4.33;;
76788;SDS011;65740;52.464;13.446;2023-07-16T06:45:58;4.70;;;4.40;;
76788;SDS011;65740;52.464;13.446;2023-07-16T06:48:23;5.17;;;4.77;;
76788;SDS011;65740;52.464;13.446;2023-07-16T06:50:49;4.77;;;4.47;;
76788;SDS011;65740;52.464;13.446;2023-07-16T06:53:16;4.50;;;4.30;;
76788;SDS011;65740;52.464;13.446;2023-07-16T06:55:41;4.60;;;4.40;;
76788;SDS011;65740;52.464;13.446;2023-07-16T06:58:09;5.07;;;4.77;;
76788;SDS011;65740;52.464;13.446;2023-07-16T07:00:36;5.00;;;4.70;;
76788;SDS011;65740;52.464;13.446;2023-07-16T07:03:01;4.60;;;4.30;;
76788;SDS011;65740;52.464;13.446;2023-07-16T07:05:27;4.37;;;4.07;;
76788;SDS011;65740;52.464;13.446;2023-07-16T07:07:52;4.53;;;4.27;;
76788;SDS011;65740;52.464;13.446;2023-07-16T07:10:18;4.57;;;4.27;;
76788;SDS011;65740;52.464;13.446;2023-07-16T07:12:44;4.30;;;4.10;;
76788;SDS011;65740;52.464;13.446;2023-07-16T07:15:09;4.43;;;4.23;;
76788;SDS011;65740;52.464;13.446;2023-07-16T07:17:35;5.03;;;4.73;;
76788;SDS011;65740;52.464;13.446;2023-07-16T07:20:01;4.20;;;4.00;;
76788;SDS011;65740;52.464;13.446;2023-07-16T07:22:28;4.00;;;3.80;;
76788;SDS011;65740;52.464;13.446;2023-07-16T07:24:54;4.33;;;4.13;;
76788;SDS011;65740;52.464;13.446;2023-07-16T07:27:19;4.30;;;4.10;;
76788;SDS011;65740;52.464;13.446;2023-07-16T07:29:45;4.13;;;3.93;;
76788;SDS011;65740;52.464;13.446;2023-07-16T07:32:11;4.30;;;4.00;;
76788;SDS011;65740;52.464;13.446;2023-07-16T07:34:38;4.40;;;4.20;;
76788;SDS011;65740;52.464;13.446;2023-07-16T07:37:04;4.23;;;4.03;;
76788;SDS011;65740;52.464;13.446;2023-07-16T07:39:30;4.23;;;4.00;;
76788;SDS011;65740;52.464;13.446;2023-07-16T07:41:55;4.00;;;3.80;;
76788;SDS011;65740;52.464;13.446;2023-07-16T07:44:21;3.97;;;3.77;;
76788;SDS011;65740;52.464;13.446;2023-07-16T07:46:46;4.40;;;4.13;;
76788;SDS011;65740;52.464;13.446;2023-07-16T07:49:12;4.10;;;3.90;;
76788;SDS011;65740;52.464;13.446;2023-07-16T07:51:38;4.57;;;4.27;;
76788;SDS011;65740;52.464;13.446;2023-07-16T07:54:03;4.50;;;4.30;;
76788;SDS011;65740;52.464;13.446;2023-07-16T07:56:29;4.43;;;4.20;;
76788;SDS011;65740;52.464;13.446;2023-07-16T07:58:55;4.00;;;3.80;;
76788;SDS011;65740;52.464;13.446;2023-07-16T08:01:21;3.90;;;3.70;;
76788;SDS011;65740;52.464;13.446;2023-07-16T08:03:46;4.50;;;4.30;;
76788;SDS011;65740;52.464;13.446;2023-07-16T08:06:12;4.00;;;3.80;;
76788;SDS011;65740;52.464;13.446;2023-07-16T08:08:38;4.40;;;4.20;;
76788;SDS011;65740;52.464;13.446;2023-07-16T08:11:03;4.27;;;4.07;;
76788;SDS011;65740;52.464;13.446;2023-07-16T08:13:29;4.13;;;3.93;;
76788;SDS011;65740;52.464;13.446;2023-07-16T08:15:54;4.33;;;4.13;;
76788;SDS011;65740;52.464;13.446;2023-07-16T08:18:20;4.27;;;4.07;;
76788;SDS011;65740;52.464;13.446;2023-07-16T08:20:46;4.23;;;3.97;;
76788;SDS011;65740;52.464;13.446;2023-07-16T08:23:12;4.37;;;4.17;;
76788;SDS011;65740;52.464;13.446;2023-07-16T08:25:37;4.00;;;3.80;;
76788;SDS011;65740;52.464;13.446;2023-07-16T08:28:03;4.33;;;4.13;;
76788;SDS011;65740;52.464;13.446;2023-07-16T08:30:29;4.50;;;4.20;;
76788;SDS011;65740;52.464;13.446;2023-07-16T08:32:54;4.63;;;4.33;;
76788;SDS011;65740;52.464;13.446;2023-07-16T08:35:20;4.10;;;3.90;;
76788;SDS011;65740;52.464;13.446;2023-07-16T08:37:46;3.97;;;3.77;;
76788;SDS011;65740;52.464;13.446;2023-07-16T08:40:11;4.00;;;3.80;;
76788;SDS011;65740;52.464;13.446;2023-07-16T08:42:38;4.90;;;4.60;;
76788;SDS011;65740;52.464;13.446;2023-07-16T08:45:09;4.07;;;3.87;;
76788;SDS011;65740;52.464;13.446;2023-07-16T08:47:36;4.00;;;3.80;;
76788;SDS011;65740;52.464;13.446;2023-07-16T08:50:02;4.27;;;4.07;;
76788;SDS011;65740;52.464;13.446;2023-07-16T08:52:28;4.23;;;4.03;;
76788;SDS011;65740;52.464;13.446;2023-07-16T08:54:54;4.30;;;4.10;;
76788;SDS011;65740;52.464;13.446;2023-07-16T08:57:21;4.30;;;4.10;;
76788;SDS011;65740;52.464;13.446;2023-07-16T08:59:50;3.90;;;3.70;;
76788;SDS011;65740;52.464;13.446;2023-07-16T09:02:19;4.10;;;3.90;;
76788;SDS011;65740;52.464;13.446;2023-07-16T09:04:49;4.27;;;4.07;;
76788;SDS011;65740;52.464;13.446;2023-07-16T09:07:16;3.93;;;3.73;;
76788;SDS011;65740;52.464;13.446;2023-07-16T09:09:42;4.57;;;4.27;;
76788;SDS011;65740;52.464;13.446;2023-07-16T09:12:11;4.20;;;4.00;;
76788;SDS011;65740;52.464;13.446;2023-07-16T09:14:37;4.50;;;4.27;;
76788;SDS011;65740;52.464;13.446;2023-07-16T09:17:05;4.20;;;4.00;;
76788;SDS011;65740;52.464;13.446;2023-07-16T09:19:33;3.87;;;3.67;;
76788;SDS011;65740;52.464;13.446;2023-07-16T09:21:59;4.03;;;3.83;;
76788;SDS011;65740;52.464;13.446;2023-07-16T09:24:24;4.07;;;3.87;;
76788;SDS011;65740;52.464;13.446;2023-07-16T09:26:54;4.60;;;4.30;;
76788;SDS011;65740;52.464;13.446;2023-07-16T09:29:25;3.90;;;3.70;;
76788;SDS011;65740;52.464;13.446;2023-07-16T09:32:01;4.33;;;4.10;;
76788;SDS011;65740;52.464;13.446;2023-07-16T09:34:27;4.40;;;4.20;;
76788;SDS011;65740;52.464;13.446;2023-07-16T09:36:54;4.23;;;4.03;;
76788;SDS011;65740;52.464;13.446;2023-07-16T09:39:20;3.60;;;3.40;;
76788;SDS011;65740;52.464;13.446;2023-07-16T09:41:47;3.80;;;3.60;;
76788;SDS011;65740;52.464;13.446;2023-07-16T09:44:14;3.57;;;3.37;;
76788;SDS011;65740;52.464;13.446;2023-07-16T09:46:40;4.30;;;4.00;;
76788;SDS011;65740;52.464;13.446;2023-07-16T09:49:07;4.30;;;4.10;;
76788;SDS011;65740;52.464;13.446;2023-07-16T09:51:34;3.97;;;3.77;;
76788;SDS011;65740;52.464;13.446;2023-07-16T09:54:01;3.90;;;3.67;;
76788;SDS011;65740;52.464;13.446;2023-07-16T09:56:29;4.30;;;4.00;;
76788;SDS011;65740;52.464;13.446;2023-07-16T09:59:00;4.10;;;3.90;;
76788;SDS011;65740;52.464;13.446;2023-07-16T10:01:28;3.63;;;3.43;;
76788;SDS011;65740;52.464;13.446;2023-07-16T10:03:54;4.10;;;3.90;;
76788;SDS011;65740;52.464;13.446;2023-07-16T10:06:20;4.07;;;3.87;;
76788;SDS011;65740;52.464;13.446;2023-07-16T10:08:49;3.70;;;3.50;;
76788;SDS011;65740;52.464;13.446;2023-07-16T10:11:16;3.70;;;3.50;;
76788;SDS011;65740;52.464;13.446;2023-07-16T10:13:43;4.30;;;4.00;;
76788;SDS011;65740;52.464;13.446;2023-07-16T10:16:19;4.03;;;3.83;;
76788;SDS011;65740;52.464;13.446;2023-07-16T10:18:52;3.83;;;3.63;;
76788;SDS011;65740;52.464;13.446;2023-07-16T10:21:22;4.13;;;3.93;;
76788;SDS011;65740;52.464;13.446;2023-07-16T10:23:56;4.10;;;3.90;;
76788;SDS011;65740;52.464;13.446;2023-07-16T10:26:26;4.23;;;4.03;;
76788;SDS011;65740;52.464;13.446;2023-07-16T10:28:53;3.67;;;3.47;;
76788;SDS011;65740;52.464;13.446;2023-07-16T10:31:23;4.30;;;4.00;;
76788;SDS011;65740;52.464;13.446;2023-07-16T10:34:23;4.00;;;3.80;;
76788;SDS011;65740;52.464;13.446;2023-07-16T10:36:42;4.10;;;3.90;;
76788;SDS011;65740;52.464;13.446;2023-07-16T10:39:07;4.10;;;3.90;;
76788;SDS011;65740;52.464;13.446;2023-07-16T10:41:33;3.80;;;3.60;;
76788;SDS011;65740;52.464;13.446;2023-07-16T10:43:59;4.10;;;3.90;;
76788;SDS011;65740;52.464;13.446;2023-07-16T10:46:25;4.00;;;3.77;;
76788;SDS011;65740;52.464;13.446;2023-07-16T10:48:50;3.73;;;3.53;;
76788;SDS011;65740;52.464;13.446;2023-07-16T10:51:16;3.57;;;3.37;;
76788;SDS011;65740;52.464;13.446;2023-07-16T10:53:44;3.53;;;3.33;;
76788;SDS011;65740;52.464;13.446;2023-07-16T10:56:10;3.97;;;3.77;;
76788;SDS011;65740;52.464;13.446;2023-07-16T10:58:36;4.20;;;4.00;;
76788;SDS011;65740;52.464;13.446;2023-07-16T11:01:02;4.10;;;3.90;;
76788;SDS011;65740;52.464;13.446;2023-07-16T11:03:28;4.10;;;3.80;;
76788;SDS011;65740;52.464;13.446;2023-07-16T11:05:54;4.10;;;3.80;;
76788;SDS011;65740;52.464;13.446;2023-07-16T11:08:23;3.70;;;3.50;;
76788;SDS011;65740;52.464;13.446;2023-07-16T11:10:53;3.50;;;3.30;;
76788;SDS011;65740;52.464;13.446;2023-07-16T11:13:25;3.87;;;3.67;;
76788;SDS011;65740;52.464;13.446;2023-07-16T11:15:55;3.40;;;3.27;;
76788;SDS011;65740;52.464;13.446;2023-07-16T11:18:24;3.80;;;3.60;;
76788;SDS011;65740;52.464;13.446;2023-07-16T11:20:50;3.90;;;3.70;;
76788;SDS011;65740;52.464;13.446;2023-07-16T11:23:17;3.90;;;3.70;;
76788;SDS011;65740;52.464;13.446;2023-07-16T11:25:47;3.80;;;3.50;;
76788;SDS011;65740;52.464;13.446;2023-07-16T11:28:13;4.03;;;3.80;;
76788;SDS011;65740;52.464;13.446;2023-07-16T11:30:38;3.87;;;3.67;;
76788;SDS011;65740;52.464;13.446;2023-07-16T11:33:09;4.13;;;3.93;;
76788;SDS011;65740;52.464;13.446;2023-07-16T11:35:35;3.80;;;3.60;;
76788;SDS011;65740;52.464;13.446;2023-07-16T11:38:03;4.10;;;3.90;;
76788;SDS011;65740;52.464;13.446;2023-07-16T11:40:30;3.60;;;3.40;;
76788;SDS011;65740;52.464;13.446;2023-07-16T11:42:55;3.90;;;3.70;;
76788;SDS011;65740;52.464;13.446;2023-07-16T11:45:22;3.63;;;3.43;;
76788;SDS011;65740;52.464;13.446;2023-07-16T11:47:51;4.40;;;4.10;;
76788;SDS011;65740;52.464;13.446;2023-07-16T11:50:17;3.90;;;3.70;;
76788;SDS011;65740;52.464;13.446;2023-07-16T11:52:42;4.00;;;3.80;;
76788;SDS011;65740;52.464;13.446;2023-07-16T11:55:16;3.43;;;3.23;;
76788;SDS011;65740;52.464;13.446;2023-07-16T11:57:42;3.80;;;3.60;;
76788;SDS011;65740;52.464;13.446;2023-07-16T12:00:07;3.70;;;3.50;;
76788;SDS011;65740;52.464;13.446;2023-07-16T12:02:33;3.60;;;3.40;;
76788;SDS011;65740;52.464;13.446;2023-07-16T12:04:59;3.63;;;3.43;;
76788;SDS011;65740;52.464;13.446;2023-07-16T12:07:35;3.80;;;3.60;;
76788;SDS011;65740;52.464;13.446;2023-07-16T12:10:02;3.70;;;3.50;;
76788;SDS011;65740;52.464;13.446;2023-07-16T12:12:29;3.20;;;3.00;;
76788;SDS011;65740;52.464;13.446;2023-07-16T12:14:54;3.30;;;3.10;;
76788;SDS011;65740;52.464;13.446;2023-07-16T12:17:20;4.07;;;3.87;;
76788;SDS011;65740;52.464;13.446;2023-07-16T12:19:45;3.90;;;3.70;;
76788;SDS011;65740;52.464;13.446;2023-07-16T12:22:11;3.87;;;3.60;;
76788;SDS011;65740;52.464;13.446;2023-07-16T12:24:37;3.50;;;3.30;;
76788;SDS011;65740;52.464;13.446;2023-07-16T12:27:03;3.97;;;3.67;;
76788;SDS011;65740;52.464;13.446;2023-07-16T12:29:28;3.77;;;3.57;;
76788;SDS011;65740;52.464;13.446;2023-07-16T12:31:54;4.10;;;3.90;;
76788;SDS011;65740;52.464;13.446;2023-07-16T12:34:20;3.70;;;3.50;;
76788;SDS011;65740;52.464;13.446;2023-07-16T12:36:45;3.50;;;3.30;;
76788;SDS011;65740;52.464;13.446;2023-07-16T12:39:11;3.97;;;3.63;;
76788;SDS011;65740;52.464;13.446;2023-07-16T12:41:36;3.70;;;3.50;;
76788;SDS011;65740;52.464;13.446;2023-07-16T12:44:02;3.30;;;3.10;;
76788;SDS011;65740;52.464;13.446;2023-07-16T12:46:28;3.73;;;3.53;;
76788;SDS011;65740;52.464;13.446;2023-07-16T12:48:53;3.43;;;3.27;;
76788;SDS011;65740;52.464;13.446;2023-07-16T12:51:19;3.80;;;3.60;;
76788;SDS011;65740;52.464;13.446;2023-07-16T12:53:44;4.00;;;3.77;;
76788;SDS011;65740;52.464;13.446;2023-07-16T12:56:10;3.97;;;3.70;;
76788;SDS011;65740;52.464;13.446;2023-07-16T12:58:36;4.03;;;3.83;;
76788;SDS011;65740;52.464;13.446;2023-07-16T13:01:01;4.00;;;3.70;;
76788;SDS011;65740;52.464;13.446;2023-07-16T13:03:27;4.17;;;3.90;;
76788;SDS011;65740;52.464;13.446;2023-07-16T13:05:52;3.87;;;3.67;;
76788;SDS011;65740;52.464;13.446;2023-07-16T13:08:19;3.70;;;3.50;;
76788;SDS011;65740;52.464;13.446;2023-07-16T13:10:44;3.73;;;3.43;;
76788;SDS011;65740;52.464;13.446;2023-07-16T13:13:10;4.17;;;3.87;;
76788;SDS011;65740;52.464;13.446;2023-07-16T13:15:35;3.87;;;3.67;;
76788;SDS011;65740;52.464;13.446;2023-07-16T13:18:01;3.80;;;3.60;;
76788;SDS011;65740;52.464;13.446;2023-07-16T13:20:27;3.70;;;3.50;;
76788;SDS011;65740;52.464;13.446;2023-07-16T13:22:54;3.90;;;3.60;;
76788;SDS011;65740;52.464;13.446;2023-07-16T13:25:20;3.93;;;3.73;;
76788;SDS011;65740;52.464;13.446;2023-07-16T13:27:46;3.30;;;3.20;;
76788;SDS011;65740;52.464;13.446;2023-07-16T13:30:13;3.70;;;3.50;;
76788;SDS011;65740;52.464;13.446;2023-07-16T13:32:39;3.60;;;3.40;;
76788;SDS011;65740;52.464;13.446;2023-07-16T13:35:05;3.33;;;3.13;;
76788;SDS011;65740;52.464;13.446;2023-07-16T13:37:31;3.80;;;3.60;;
76788;SDS011;65740;52.464;13.446;2023-07-16T13:39:56;3.33;;;3.13;;
76788;SDS011;65740;52.464;13.446;2023-07-16T13:42:22;3.73;;;3.53;;
76788;SDS011;65740;52.464;13.446;2023-07-16T13:44:48;3.50;;;3.30;;
76788;SDS011;65740;52.464;13.446;2023-07-16T13:47:13;3.27;;;3.10;;
76788;SDS011;65740;52.464;13.446;2023-07-16T13:49:39;3.20;;;3.00;;
76788;SDS011;65740;52.464;13.446;2023-07-16T13:52:04;3.13;;;3.03;;
76788;SDS011;65740;52.464;13.446;2023-07-16T13:54:30;3.47;;;3.27;;
76788;SDS011;65740;52.464;13.446;2023-07-16T13:56:56;3.60;;;3.40;;
76788;SDS011;65740;52.464;13.446;2023-07-16T13:59:21;3.17;;;2.97;;
76788;SDS011;65740;52.464;13.446;2023-07-16T14:01:47;3.10;;;3.00;;
76788;SDS011;65740;52.464;13.446;2023-07-16T14:04:23;3.53;;;3.33;;
76788;SDS011;65740;52.464;13.446;2023-07-16T14:06:49;3.40;;;3.20;;
76788;SDS011;65740;52.464;13.446;2023-07-16T14:09:14;2.97;;;2.83;;
76788;SDS011;65740;52.464;13.446;2023-07-16T14:11:40;3.70;;;3.43;;
76788;SDS011;65740;52.464;13.446;2023-07-16T14:14:05;3.57;;;3.37;;
76788;SDS011;65740;52.464;13.446;2023-07-16T14:16:31;3.90;;;3.70;;
76788;SDS011;65740;52.464;13.446;2023-07-16T14:18:57;3.33;;;3.13;;
76788;SDS011;65740;52.464;13.446;2023-07-16T14:21:22;3.20;;;3.00;;
76788;SDS011;65740;52.464;13.446;2023-07-16T14:23:50;3.53;;;3.33;;
76788;SDS011;65740;52.464;13.446;2023-07-16T14:26:16;3.40;;;3.20;;
76788;SDS011;65740;52.464;13.446;2023-07-16T14:28:41;3.20;;;3.10;;
76788;SDS011;65740;52.464;13.446;2023-07-16T14:31:07;3.60;;;3.40;;
76788;SDS011;65740;52.464;13.446;2023-07-16T14:33:32;2.70;;;2.60;;